createdAt,value
2022-12-01T00:01:29.034Z,101038.56
2022-12-01T00:03:58.370Z,101048.31
2022-12-01T00:06:26.586Z,101031.63
2022-12-01T00:09:17.988Z,101040.69
2022-12-01T00:11:48.627Z,101036.06
2022-12-01T00:14:16.721Z,101031.59
2022-12-01T00:16:45.079Z,101036.72
2022-12-01T00:19:13.177Z,101029.88
2022-12-01T00:21:41.287Z,101028.16
2022-12-01T00:24:10.659Z,101035.25
2022-12-01T00:26:39.001Z,101032.53
2022-12-01T00:29:06.971Z,101028.47
2022-12-01T00:31:35.298Z,101023.22
2022-12-01T00:34:08.095Z,101034.13
2022-12-01T00:36:39.341Z,101031.22
2022-12-01T00:39:08.420Z,101022.22
2022-12-01T00:41:36.251Z,101022.88
2022-12-01T00:44:04.248Z,101035.44
2022-12-01T00:46:32.195Z,101035.16
2022-12-01T00:49:00.171Z,101041.53
2022-12-01T00:51:28.091Z,101043.19
2022-12-01T00:53:55.956Z,101042.84
2022-12-01T00:56:24.007Z,101040.03
2022-12-01T00:58:51.886Z,101043.28
2022-12-01T01:01:19.974Z,101044.00
2022-12-01T01:03:48.359Z,101050.19
2022-12-01T01:06:16.870Z,101054.81
2022-12-01T01:08:46.528Z,101050.47
2022-12-01T01:11:14.515Z,101048.78
2022-12-01T01:13:42.543Z,101051.59
2022-12-01T01:16:21.861Z,101059.59
2022-12-01T01:18:50.134Z,101048.94
2022-12-01T01:21:21.367Z,101062.97
2022-12-01T01:23:50.255Z,101065.38
2022-12-01T01:26:24.686Z,101063.66
2022-12-01T01:28:53.586Z,101054.41
2022-12-01T01:31:23.951Z,101058.75
2022-12-01T01:33:52.438Z,101050.19
2022-12-01T01:36:20.402Z,101037.22
2022-12-01T01:38:51.771Z,101054.88
2022-12-01T01:41:20.390Z,101061.75
2022-12-01T01:43:51.172Z,101051.09
2022-12-01T01:46:22.506Z,101056.19
2022-12-01T01:48:52.749Z,101059.00
2022-12-01T01:51:29.968Z,101055.22
2022-12-01T01:54:04.467Z,101061.75
2022-12-01T01:56:32.899Z,101053.66
2022-12-01T01:59:01.293Z,101051.94
2022-12-01T02:01:29.669Z,101054.09
2022-12-01T02:03:58.734Z,101044.31
2022-12-01T02:06:26.678Z,101043.34
2022-12-01T02:08:54.670Z,101048.78
2022-12-01T02:11:48.738Z,101037.41
2022-12-01T02:14:53.864Z,101043.84
2022-12-01T02:17:41.895Z,101041.69
2022-12-01T02:20:42.581Z,101044.41
2022-12-01T02:23:16.130Z,101043.00
2022-12-01T02:26:16.452Z,101036.75
2022-12-01T02:29:11.714Z,101040.78
2022-12-01T02:32:02.464Z,101036.75
2022-12-01T02:35:04.459Z,101046.81
2022-12-01T02:37:47.996Z,101040.38
2022-12-01T02:40:25.183Z,101038.41
2022-12-01T02:43:03.219Z,101030.22
2022-12-01T02:45:48.551Z,101022.88
2022-12-01T02:48:38.690Z,101030.22
2022-12-01T02:51:29.298Z,101036.75
2022-12-01T02:54:01.980Z,101038.47
2022-12-01T02:56:30.125Z,101038.88
2022-12-01T02:58:58.101Z,101042.91
2022-12-01T03:01:45.114Z,101042.19
2022-12-01T03:04:48.457Z,101035.44
2022-12-01T03:07:33.361Z,101036.75
2022-12-01T03:10:14.379Z,101040.56
2022-12-01T03:12:49.717Z,101036.41
2022-12-01T03:15:47.204Z,101028.16
2022-12-01T03:18:40.064Z,101018.75
2022-12-01T03:21:13.296Z,101031.59
2022-12-01T03:23:44.713Z,101024.78
2022-12-01T03:26:18.373Z,101025.50
2022-12-01T03:28:59.950Z,101026.09
2022-12-01T03:31:33.557Z,101025.94
2022-12-01T03:34:15.310Z,101022.53
2022-12-01T03:36:48.297Z,101024.59
2022-12-01T03:39:23.609Z,101027.75
2022-12-01T03:42:03.459Z,101023.06
2022-12-01T03:44:38.708Z,101019.16
2022-12-01T03:47:12.467Z,101021.72
2022-12-01T03:49:41.174Z,101023.84
2022-12-01T03:52:43.094Z,101029.44
2022-12-01T03:55:17.553Z,101027.16
2022-12-01T03:57:54.008Z,101031.50
2022-12-01T04:00:22.469Z,101032.72
2022-12-01T04:03:00.254Z,101032.16
2022-12-01T04:05:28.302Z,101028.13
2022-12-01T04:07:56.194Z,101028.53
2022-12-01T04:10:24.438Z,101029.44
2022-12-01T04:12:59.086Z,101022.69
2022-12-01T04:15:27.978Z,101028.13
2022-12-01T04:17:56.113Z,101028.13
2022-12-01T04:20:23.927Z,101028.25
2022-12-01T04:22:52.018Z,101035.53
2022-12-01T04:25:19.846Z,101027.59
2022-12-01T04:27:47.826Z,101024.31
2022-12-01T04:30:15.919Z,101035.75
2022-12-01T04:32:44.619Z,101038.72
2022-12-01T04:35:13.260Z,101036.75
2022-12-01T04:37:41.260Z,101031.28
2022-12-01T04:40:09.750Z,101029.41
2022-12-01T04:42:37.777Z,101031.06
2022-12-01T04:45:06.273Z,101028.56
2022-12-01T04:47:36.444Z,101033.91
2022-12-01T04:50:04.713Z,101031.19
2022-12-01T04:52:35.412Z,101027.16
2022-12-01T04:55:04.438Z,101029.09
2022-12-01T04:57:32.296Z,101031.78
2022-12-01T05:00:00.148Z,101024.09
2022-12-01T05:02:28.037Z,101024.94
2022-12-01T05:04:55.872Z,101024.84
2022-12-01T05:07:23.869Z,101026.72
2022-12-01T05:09:52.033Z,101034.78
2022-12-01T05:12:20.177Z,101033.75
2022-12-01T05:14:48.164Z,101037.50
2022-12-01T05:17:16.161Z,101034.56
2022-12-01T05:20:02.995Z,101031.59
2022-12-01T05:22:57.242Z,101043.06
2022-12-01T05:25:19.711Z,101043.38
2022-12-01T05:27:47.543Z,101036.47
2022-12-01T05:30:15.516Z,101042.38
2022-12-01T05:32:43.364Z,101045.78
2022-12-01T05:35:11.229Z,101041.41
2022-12-01T05:37:39.100Z,101044.47
2022-12-01T05:40:08.424Z,101044.03
2022-12-01T05:42:36.471Z,101035.53
2022-12-01T05:45:04.643Z,101042.47
2022-12-01T05:47:32.574Z,101039.66
2022-12-01T05:50:05.215Z,101043.03
2022-12-01T05:52:35.495Z,101045.13
2022-12-01T05:55:04.954Z,101046.44
2022-12-01T05:57:33.924Z,101049.16
2022-12-01T06:00:01.858Z,101047.03
2022-12-01T06:02:42.387Z,101039.78
2022-12-01T06:05:10.361Z,101044.44
2022-12-01T06:07:40.575Z,101050.56
2022-12-01T06:10:09.889Z,101042.06
2022-12-01T06:12:38.327Z,101052.72
2022-12-01T06:15:07.788Z,101049.38
2022-12-01T06:17:39.911Z,101055.78
2022-12-01T06:20:09.847Z,101057.53
2022-12-01T06:22:37.865Z,101059.78
2022-12-01T06:25:06.349Z,101045.56
2022-12-01T06:27:35.568Z,101050.53
2022-12-01T06:30:05.376Z,101053.94
2022-12-01T06:32:33.270Z,101046.84
2022-12-01T06:35:01.236Z,101057.22
2022-12-01T06:37:34.293Z,101044.59
2022-12-01T06:40:02.177Z,101053.94
2022-12-01T06:42:32.404Z,101051.72
2022-12-01T06:45:00.416Z,101056.66
2022-12-01T06:47:28.376Z,101053.09
2022-12-01T06:49:56.523Z,101058.28
2022-12-01T06:52:24.480Z,101062.09
2022-12-01T06:54:52.484Z,101058.63
2022-12-01T06:57:20.732Z,101069.53
2022-12-01T06:59:49.142Z,101064.91
2022-12-01T07:02:18.067Z,101069.84
2022-12-01T07:04:46.029Z,101063.47
2022-12-01T07:07:14.051Z,101069.06
2022-12-01T07:09:42.273Z,101075.34
2022-12-01T07:12:10.857Z,101076.50
2022-12-01T07:14:39.092Z,101080.28
2022-12-01T07:17:07.075Z,101078.41
2022-12-01T07:19:35.008Z,101083.09
2022-12-01T07:22:03.233Z,101077.66
2022-12-01T07:24:31.571Z,101078.91
2022-12-01T07:26:59.589Z,101083.13
2022-12-01T07:29:27.623Z,101084.69
2022-12-01T07:31:55.424Z,101081.72
2022-12-01T07:34:23.253Z,101083.47
2022-12-01T07:36:51.253Z,101083.28
2022-12-01T07:39:19.139Z,101086.53
2022-12-01T07:41:47.191Z,101077.44
2022-12-01T07:44:15.163Z,101089.22
2022-12-01T07:46:43.263Z,101089.56
2022-12-01T07:49:15.028Z,101096.00
2022-12-01T07:51:43.014Z,101087.06
2022-12-01T07:54:14.417Z,101092.97
2022-12-01T07:56:42.566Z,101087.13
2022-12-01T07:59:10.466Z,101091.53
2022-12-01T08:01:44.098Z,101095.00
2022-12-01T08:04:12.488Z,101102.44
2022-12-01T08:06:40.517Z,101102.94
2022-12-01T08:09:08.590Z,101102.09
2022-12-01T08:11:36.505Z,101103.09
2022-12-01T08:14:04.480Z,101107.88
2022-12-01T08:16:32.490Z,101113.63
2022-12-01T08:19:00.525Z,101102.72
2022-12-01T08:21:28.608Z,101109.13
2022-12-01T08:23:57.995Z,101107.13
2022-12-01T08:26:26.589Z,101100.16
2022-12-01T08:28:54.712Z,101107.44
2022-12-01T08:31:29.330Z,101106.81
2022-12-01T08:33:57.867Z,101104.78
2022-12-01T08:36:25.853Z,101101.13
2022-12-01T08:38:55.462Z,101103.06
2022-12-01T08:41:24.896Z,101104.31
2022-12-01T08:43:58.373Z,101099.22
2022-12-01T08:46:29.116Z,101105.75
2022-12-01T08:48:57.976Z,101106.16
2022-12-01T08:51:26.497Z,101111.94
2022-12-01T08:53:56.597Z,101106.59
2022-12-01T08:56:36.654Z,101104.84
2022-12-01T08:59:04.982Z,101109.81
2022-12-01T09:01:33.873Z,101113.13
2022-12-01T09:04:06.473Z,101113.41
2022-12-01T09:06:40.497Z,101100.19
2022-12-01T09:09:11.109Z,101112.31
2022-12-01T09:11:40.182Z,101105.66
2022-12-01T09:14:08.028Z,101113.84
2022-12-01T09:16:36.604Z,101106.13
2022-12-01T09:19:05.404Z,101114.97
2022-12-01T09:21:35.041Z,101106.59
2022-12-01T09:24:05.406Z,101110.69
2022-12-01T09:26:34.121Z,101117.53
2022-12-01T09:29:06.655Z,101114.69
2022-12-01T09:31:35.758Z,101112.34
2022-12-01T09:34:06.194Z,101107.44
2022-12-01T09:36:35.845Z,101103.06
2022-12-01T09:39:05.660Z,101107.09
2022-12-01T09:41:38.105Z,101104.94
2022-12-01T09:44:36.057Z,101103.75
2022-12-01T09:47:16.923Z,101097.72
2022-12-01T09:49:54.554Z,101087.78
2022-12-01T09:52:25.267Z,101097.34
2022-12-01T09:54:55.537Z,101092.13
2022-12-01T09:57:37.123Z,101090.22
2022-12-01T10:00:12.353Z,101087.97
2022-12-01T10:03:09.947Z,101080.00
2022-12-01T10:06:25.148Z,101074.47
2022-12-01T10:08:44.307Z,101069.69
2022-12-01T10:11:31.132Z,101077.19
2022-12-01T10:14:00.333Z,101066.97
2022-12-01T10:16:38.607Z,101062.28
2022-12-01T10:19:28.806Z,101055.03
2022-12-01T10:22:21.473Z,101061.16
2022-12-01T10:25:01.346Z,101049.81
2022-12-01T10:27:40.942Z,101055.06
2022-12-01T10:30:18.875Z,101055.25
2022-12-01T10:33:19.092Z,101049.81
2022-12-01T10:35:46.990Z,101053.63
2022-12-01T10:38:26.195Z,101046.72
2022-12-01T10:40:58.259Z,101042.53
2022-12-01T10:43:34.485Z,101037.84
2022-12-01T10:46:37.139Z,101040.03
2022-12-01T10:49:11.299Z,101032.91
2022-12-01T10:51:50.436Z,101031.38
2022-12-01T10:54:18.975Z,101039.69
2022-12-01T10:56:49.529Z,101036.06
2022-12-01T10:59:31.536Z,101034.31
2022-12-01T11:02:01.366Z,101034.31
2022-12-01T11:04:47.828Z,101035.34
2022-12-01T11:07:28.959Z,101034.22
2022-12-01T11:10:05.325Z,101036.69
2022-12-01T11:12:34.200Z,101030.78
2022-12-01T11:15:02.676Z,101024.56
2022-12-01T11:17:40.844Z,101030.44
2022-12-01T11:20:30.595Z,101031.59
2022-12-01T11:23:10.548Z,101023.44
2022-12-01T11:25:38.625Z,101020.88
2022-12-01T11:28:06.842Z,101019.66
2022-12-01T11:30:34.987Z,101033.41
2022-12-01T11:33:04.622Z,101023.66
2022-12-01T11:35:36.584Z,101021.06
2022-12-01T11:38:28.772Z,101020.84
2022-12-01T11:40:56.720Z,101017.75
2022-12-01T11:43:35.412Z,101020.13
2022-12-01T11:46:07.686Z,101006.88
2022-12-01T11:48:36.707Z,101012.97
2022-12-01T11:51:19.819Z,101003.59
2022-12-01T11:53:47.884Z,100999.97
2022-12-01T11:56:29.167Z,100994.19
2022-12-01T11:59:04.218Z,100987.09
2022-12-01T12:01:57.123Z,100984.75
2022-12-01T12:05:00.211Z,100984.16
2022-12-01T12:07:55.346Z,100981.22
2022-12-01T12:10:38.424Z,100981.16
2022-12-01T12:13:15.632Z,100983.16
2022-12-01T12:16:21.927Z,100981.41
2022-12-01T12:19:34.294Z,100982.97
2022-12-01T12:22:39.980Z,100979.03
2022-12-01T12:25:23.061Z,100968.78
2022-12-01T12:28:06.049Z,100982.47
2022-12-01T12:30:45.231Z,100971.97
2022-12-01T12:33:50.798Z,100981.53
2022-12-01T12:36:47.298Z,100965.13
2022-12-01T12:39:54.019Z,100974.75
2022-12-01T12:42:55.203Z,100968.13
2022-12-01T12:45:41.718Z,100954.66
2022-12-01T12:48:31.261Z,100949.56
2022-12-01T12:51:24.875Z,100952.72
2022-12-01T12:54:13.073Z,100949.34
2022-12-01T12:56:48.952Z,100937.66
2022-12-01T12:59:27.126Z,100956.00
2022-12-01T13:02:18.013Z,100945.63
2022-12-01T13:05:00.390Z,100934.44
2022-12-01T13:07:34.750Z,100944.56
2022-12-01T13:10:29.188Z,100947.03
2022-12-01T13:13:17.759Z,100948.63
2022-12-01T13:15:48.500Z,100938.47
2022-12-01T13:18:26.335Z,100937.84
2022-12-01T13:20:57.693Z,100924.72
2022-12-01T13:23:26.759Z,100941.16
2022-12-01T13:25:58.189Z,100933.44
2022-12-01T13:28:53.014Z,100927.44
2022-12-01T13:31:24.999Z,100929.16
2022-12-01T13:34:04.472Z,100927.75
2022-12-01T13:36:47.759Z,100923.38
2022-12-01T13:39:25.714Z,100934.41
2022-12-01T13:42:02.350Z,100917.16
2022-12-01T13:44:36.621Z,100922.88
2022-12-01T13:47:17.027Z,100918.53
2022-12-01T13:49:50.483Z,100917.50
2022-12-01T13:52:22.079Z,100921.31
2022-12-01T13:55:04.440Z,100919.13
2022-12-01T13:57:35.378Z,100918.03
2022-12-01T14:00:27.555Z,100919.63
2022-12-01T14:03:17.793Z,100916.66
2022-12-01T14:05:57.193Z,100915.28
2022-12-01T14:08:30.505Z,100914.78
2022-12-01T14:11:01.950Z,100917.03
2022-12-01T14:13:32.764Z,100918.66
2022-12-01T14:16:03.871Z,100923.31
2022-12-01T14:18:40.567Z,100922.25
2022-12-01T14:21:12.391Z,100913.78
2022-12-01T14:24:00.705Z,100909.97
2022-12-01T14:26:32.122Z,100917.34
2022-12-01T14:29:00.769Z,100922.56
2022-12-01T14:31:35.713Z,100918.78
2022-12-01T14:34:18.887Z,100922.88
2022-12-01T14:36:57.272Z,100928.63
2022-12-01T14:39:27.609Z,100914.69
2022-12-01T14:42:02.790Z,100923.16
2022-12-01T14:44:41.989Z,100921.25
2022-12-01T14:47:36.554Z,100916.38
2022-12-01T14:50:15.748Z,100927.59
2022-12-01T14:52:52.925Z,100916.13
2022-12-01T14:55:29.737Z,100919.94
2022-12-01T14:58:06.403Z,100920.22
2022-12-01T15:00:37.829Z,100926.50
2022-12-01T15:03:14.755Z,100935.28
2022-12-01T15:05:46.968Z,100932.81
2022-12-01T15:11:22.185Z,100938.03
2022-12-01T15:13:55.470Z,100935.84
2022-12-01T15:16:30.708Z,100935.84
2022-12-01T15:18:58.937Z,100942.94
2022-12-01T15:21:30.093Z,100941.31
2022-12-01T15:24:20.873Z,100944.88
2022-12-01T15:26:57.898Z,100941.59
2022-12-01T15:29:46.022Z,100945.69
2022-12-01T15:32:18.802Z,100948.44
2022-12-01T15:34:54.693Z,100947.34
2022-12-01T15:37:26.404Z,100955.53
2022-12-01T15:43:04.782Z,100948.97
2022-12-01T15:45:45.306Z,100952.25
2022-12-01T15:48:33.366Z,100941.03
2022-12-01T15:51:12.671Z,100952.25
2022-12-01T15:53:53.917Z,100949.75
2022-12-01T15:56:33.090Z,100957.69
2022-12-01T15:59:25.687Z,100958.25
2022-12-01T16:01:54.024Z,100960.97
2022-12-01T16:04:25.419Z,100958.22
2022-12-01T16:06:58.302Z,100954.41
2022-12-01T16:09:41.497Z,100952.16
2022-12-01T16:12:09.328Z,100969.41
2022-12-01T16:14:37.377Z,100958.41
2022-12-01T16:17:09.218Z,100955.13
2022-12-01T16:19:39.232Z,100951.31
2022-12-01T16:22:21.895Z,100954.84
2022-12-01T16:24:53.868Z,100958.69
2022-12-01T16:27:26.155Z,100971.78
2022-12-01T16:30:06.473Z,100963.88
2022-12-01T16:32:40.502Z,100954.81
2022-12-01T16:35:24.772Z,100957.56
2022-12-01T16:37:53.171Z,100955.91
2022-12-01T16:40:21.232Z,100961.66
2022-12-01T16:42:52.326Z,100966.28
2022-12-01T16:45:20.877Z,100971.44
2022-12-01T16:47:49.590Z,100964.06
2022-12-01T16:50:19.577Z,100967.88
2022-12-01T16:52:47.613Z,100960.19
2022-12-01T16:55:37.779Z,100963.19
2022-12-01T16:58:06.018Z,100970.00
2022-12-01T17:00:34.504Z,100972.97
2022-12-01T17:03:03.047Z,100973.78
2022-12-01T17:05:31.063Z,100980.84
2022-12-01T17:07:59.078Z,100977.75
2022-12-01T17:10:27.157Z,100972.44
2022-12-01T17:12:55.069Z,100972.91
2022-12-01T17:15:23.105Z,100970.09
2022-12-01T17:17:51.582Z,100973.25
2022-12-01T17:20:19.610Z,100978.13
2022-12-01T17:22:47.518Z,100980.25
2022-12-01T17:25:15.377Z,100976.78
2022-12-01T17:27:44.159Z,100977.31
2022-12-01T17:30:12.752Z,100977.31
2022-12-01T17:32:40.558Z,100984.97
2022-12-01T17:35:09.187Z,100979.16
2022-12-01T17:37:40.072Z,100988.97
2022-12-01T17:40:11.570Z,100978.19
2022-12-01T17:42:39.750Z,100989.72
2022-12-01T17:45:08.371Z,100985.00
2022-12-01T17:47:36.328Z,100988.81
2022-12-01T17:50:04.541Z,100990.22
2022-12-01T17:52:32.829Z,100990.75
2022-12-01T17:55:00.742Z,100994.28
2022-12-01T17:57:28.626Z,101000.25
2022-12-01T17:59:56.565Z,101002.41
2022-12-01T18:02:24.514Z,101002.22
2022-12-01T18:04:52.861Z,101007.66
2022-12-01T18:07:21.118Z,101012.28
2022-12-01T18:09:48.995Z,101010.66
2022-12-01T18:12:16.953Z,101017.75
2022-12-01T18:14:44.785Z,101014.00
2022-12-01T18:17:12.747Z,100998.91
2022-12-01T18:19:41.147Z,101020.34
2022-12-01T18:22:09.136Z,101016.81
2022-12-01T18:24:37.167Z,101020.03
2022-12-01T18:27:05.118Z,101024.66
2022-12-01T18:29:33.932Z,101018.94
2022-12-01T18:32:02.113Z,101024.47
2022-12-01T18:34:30.013Z,101026.91
2022-12-01T18:36:58.042Z,101028.00
2022-12-01T18:39:25.920Z,101025.25
2022-12-01T18:41:54.280Z,101031.03
2022-12-01T18:44:22.173Z,101029.91
2022-12-01T18:46:50.315Z,101033.19
2022-12-01T18:49:19.916Z,101025.78
2022-12-01T18:51:47.754Z,101034.22
2022-12-01T18:54:16.170Z,101031.25
2022-12-01T18:56:44.378Z,101037.28
2022-12-01T18:59:13.929Z,101036.41
2022-12-01T19:01:44.071Z,101036.91
2022-12-01T19:04:13.833Z,101038.00
2022-12-01T19:06:43.026Z,101036.91
2022-12-01T19:09:12.465Z,101036.84
2022-12-01T19:11:41.483Z,101033.00
2022-12-01T19:14:18.584Z,101034.72
2022-12-01T19:16:47.251Z,101037.94
2022-12-01T19:19:16.319Z,101036.28
2022-12-01T19:21:45.969Z,101040.66
2022-12-01T19:24:14.272Z,101030.88
2022-12-01T19:26:42.593Z,101041.22
2022-12-01T19:29:10.553Z,101034.19
2022-12-01T19:31:38.686Z,101045.09
2022-12-01T19:34:07.444Z,101041.22
2022-12-01T19:36:35.430Z,101049.38
2022-12-01T19:39:05.956Z,101051.19
2022-12-01T19:41:38.740Z,101054.78
2022-12-01T19:44:07.200Z,101053.31
2022-12-01T19:46:35.221Z,101051.97
2022-12-01T19:49:04.352Z,101057.69
2022-12-01T19:51:37.429Z,101049.75
2022-12-01T19:54:07.533Z,101053.38
2022-12-01T19:56:35.504Z,101055.78
2022-12-01T19:59:03.429Z,101050.88
2022-12-01T20:01:31.455Z,101048.28
2022-12-01T20:03:59.866Z,101054.53
2022-12-01T20:06:30.184Z,101051.25
2022-12-01T20:09:00.866Z,101055.00
2022-12-01T20:11:30.101Z,101049.22
2022-12-01T20:13:58.344Z,101052.75
2022-12-01T20:16:28.522Z,101058.47
2022-12-01T20:19:00.554Z,101063.59
2022-12-01T20:21:33.181Z,101055.63
2022-12-01T20:24:06.893Z,101060.56
2022-12-01T20:26:38.299Z,101066.84
2022-12-01T20:29:11.065Z,101070.97
2022-12-01T20:31:42.086Z,101066.66
2022-12-01T20:34:17.323Z,101061.00
2022-12-01T20:36:45.739Z,101071.16
2022-12-01T20:39:14.669Z,101074.81
2022-12-01T20:41:43.312Z,101078.09
2022-12-01T20:44:14.138Z,101080.53
2022-12-01T20:46:46.554Z,101081.09
2022-12-01T20:49:17.536Z,101076.22
2022-12-01T20:51:46.549Z,101075.38
2022-12-01T20:54:32.756Z,101083.13
2022-12-01T20:57:01.243Z,101084.97
2022-12-01T20:59:30.234Z,101086.59
2022-12-01T21:01:58.534Z,101084.72
2022-12-01T21:04:26.723Z,101090.25
2022-12-01T21:06:58.737Z,101101.72
2022-12-01T21:09:27.621Z,101093.25
2022-12-01T21:12:17.639Z,101095.31
2022-12-01T21:14:53.179Z,101102.34
2022-12-01T21:17:35.874Z,101104.16
2022-12-01T21:20:18.496Z,101107.81
2022-12-01T21:22:46.711Z,101102.84
2022-12-01T21:25:19.469Z,101101.09
2022-12-01T21:27:47.974Z,101096.66
2022-12-01T21:30:17.171Z,101102.66
2022-12-01T21:32:47.410Z,101102.91
2022-12-01T21:35:22.075Z,101100.72
2022-12-01T21:37:51.050Z,101095.56
2022-12-01T21:40:25.210Z,101107.63
2022-12-01T21:42:53.420Z,101094.00
2022-12-01T21:45:26.612Z,101103.69
2022-12-01T21:47:59.913Z,101111.59
2022-12-01T21:50:27.950Z,101104.59
2022-12-01T21:52:55.869Z,101101.63
2022-12-01T21:55:23.659Z,101100.81
2022-12-01T21:57:53.666Z,101101.31
2022-12-01T22:00:33.907Z,101099.13
2022-12-01T22:03:13.839Z,101100.16
2022-12-01T22:06:06.948Z,101102.28
2022-12-01T22:08:37.579Z,101092.75
2022-12-01T22:11:23.230Z,101104.78
2022-12-01T22:14:09.596Z,101097.34
2022-12-01T22:16:47.369Z,101109.16
2022-12-01T22:19:15.221Z,101099.75
2022-12-01T22:21:48.288Z,101101.63
2022-12-01T22:24:43.964Z,101108.19
2022-12-01T22:27:37.358Z,101100.59
2022-12-01T22:30:08.295Z,101109.50
2022-12-01T22:32:59.465Z,101108.72
2022-12-01T22:35:28.668Z,101100.47
2022-12-01T22:38:11.431Z,101119.53
2022-12-01T22:40:48.240Z,101102.34
2022-12-01T22:43:16.302Z,101099.03
2022-12-01T22:45:47.676Z,101103.09
2022-12-01T22:48:37.807Z,101102.59
2022-12-01T22:51:41.399Z,101097.63
2022-12-01T22:54:14.933Z,101099.84
2022-12-01T22:57:12.087Z,101095.91
2022-12-01T22:59:42.582Z,101105.50
2022-12-01T23:02:21.503Z,101096.16
2022-12-01T23:04:54.383Z,101096.78
2022-12-01T23:07:36.988Z,101108.19
2022-12-01T23:10:31.562Z,101108.41
2022-12-01T23:13:01.824Z,101099.50
2022-12-01T23:15:34.310Z,101095.38
2022-12-01T23:18:21.614Z,101108.34
2022-12-01T23:20:54.554Z,101104.53
2022-12-01T23:23:28.557Z,101102.59
2022-12-01T23:25:57.136Z,101099.97
2022-12-01T23:28:25.483Z,101098.66
2022-12-01T23:30:55.788Z,101100.72
2022-12-01T23:33:28.910Z,101100.06
2022-12-01T23:36:17.811Z,101093.50
2022-12-01T23:38:52.318Z,101100.38
2022-12-01T23:41:39.139Z,101100.53
2022-12-01T23:44:27.743Z,101103.56
2022-12-01T23:46:58.065Z,101098.59
2022-12-01T23:49:29.939Z,101088.41
2022-12-01T23:52:00.549Z,101096.84
2022-12-01T23:54:32.552Z,101088.38
2022-12-01T23:57:19.291Z,101096.34
2022-12-01T23:59:48.701Z,101094.81
